New River MCAS /H/ /Mccutcheon Fld/ Airport
KNCA : rendu visible

Aérodrome :











RETROUVEZ-NOUS SUR...

 
LOGIN :

S'inscrire | Disclaimer

   EN    FR    IT 

 









Légende :    VFR   VFR Marginal   IFR   IFR Intensif   IFR Très Intensif
Visi : 
Plafond : 
>= 8 km
>= 3000ft
5 à 8 km
1000 à 3000 ft
1500m à 5 km
500 à 1000 ft
800 à 1500m
200 à 500 ft
< 800m
< 200 ft
Symboles :   Orages  Brouillard  Fortes neiges  Fortes précipitations  Vent > 20 kt






- Altitude de l'aérodrome : 26 ft


KNCA - New River MCAS /H/ /Mccutcheon Fld/

DERNIER METAR :
  • 201156Z AUTO 30005KT 4SM BR BKN075 07/06 A3001 RMK AO2 SLP165 T00670056 10078 20056 53024

METARs EXPIRÉS :
  • 201056Z AUTO 29004KT 5SM BR OVC075 07/06 A2998 RMK AO2 SLP155 T00670056
  • 200956Z AUTO 30003KT 5SM BR BKN110 07/06 A2995 RMK AO2 SLP145 T00670056

TAF TAF KNCA
Valide du 20 à 03h jusqu'au 21 à 03h UTC


2003/2103 VRB06KT 9999 BKN020 QNH2989INS
TEMPO 2010/2013 6000 BR BKN007
BECMG 2013/2015 33008G15KT 9999 FEW030 QNH3004INS T07/2011Z T13/2018Z



MET'MAP, la Météo Aéronautique d'un coup d'oeil ! - Copyright ORBIFLY Décembre 2007 - Disclaimer

ORBIFLY MET'MAP TEAM :

Programmation & Développement : Alexandra Zaïnal
Conception & Développement : Baudouin d'Aumeries
Co-Programmation & Développement : Marc-Olivier Méhu
Soutien technique & logistique : Manuel Goepfert

Contact : metmap@orbifly.com




SOURCES & CREDITS :

   NOAA       Earth
Advisory